sensor_id;sensor_type;location;lat;lon;timestamp;P1;durP1;ratioP1;P2;durP2;ratioP2
27003;SDS011;14546;47.590;19.022;2023-08-30T00:00:43;6.57;;;4.97;;
27003;SDS011;14546;47.590;19.022;2023-08-30T00:03:10;7.00;;;5.20;;
27003;SDS011;14546;47.590;19.022;2023-08-30T00:05:38;7.28;;;5.45;;
27003;SDS011;14546;47.590;19.022;2023-08-30T00:08:05;6.07;;;5.47;;
27003;SDS011;14546;47.590;19.022;2023-08-30T00:10:30;10.32;;;6.35;;
27003;SDS011;14546;47.590;19.022;2023-08-30T00:12:56;8.57;;;5.90;;
27003;SDS011;14546;47.590;19.022;2023-08-30T00:15:22;9.68;;;6.43;;
27003;SDS011;14546;47.590;19.022;2023-08-30T00:17:48;5.60;;;5.10;;
27003;SDS011;14546;47.590;19.022;2023-08-30T00:20:13;13.13;;;5.85;;
27003;SDS011;14546;47.590;19.022;2023-08-30T00:22:39;9.68;;;6.40;;
27003;SDS011;14546;47.590;19.022;2023-08-30T00:25:04;16.98;;;7.72;;
27003;SDS011;14546;47.590;19.022;2023-08-30T00:27:30;8.48;;;7.10;;
27003;SDS011;14546;47.590;19.022;2023-08-30T00:29:56;8.93;;;7.82;;
27003;SDS011;14546;47.590;19.022;2023-08-30T00:32:21;9.60;;;7.38;;
27003;SDS011;14546;47.590;19.022;2023-08-30T00:34:51;10.45;;;7.53;;
27003;SDS011;14546;47.590;19.022;2023-08-30T00:37:16;8.13;;;7.32;;
27003;SDS011;14546;47.590;19.022;2023-08-30T00:39:42;15.48;;;7.85;;
27003;SDS011;14546;47.590;19.022;2023-08-30T00:42:08;7.90;;;7.13;;
27003;SDS011;14546;47.590;19.022;2023-08-30T00:44:34;10.13;;;6.97;;
27003;SDS011;14546;47.590;19.022;2023-08-30T00:47:03;11.45;;;6.82;;
27003;SDS011;14546;47.590;19.022;2023-08-30T00:49:32;8.90;;;7.90;;
27003;SDS011;14546;47.590;19.022;2023-08-30T00:51:58;13.55;;;7.75;;
27003;SDS011;14546;47.590;19.022;2023-08-30T00:54:33;9.77;;;7.38;;
27003;SDS011;14546;47.590;19.022;2023-08-30T00:57:00;8.50;;;7.70;;
27003;SDS011;14546;47.590;19.022;2023-08-30T00:59:27;8.95;;;8.05;;
27003;SDS011;14546;47.590;19.022;2023-08-30T01:01:52;12.43;;;9.18;;
27003;SDS011;14546;47.590;19.022;2023-08-30T01:04:19;10.82;;;9.73;;
27003;SDS011;14546;47.590;19.022;2023-08-30T01:06:44;12.95;;;10.30;;
27003;SDS011;14546;47.590;19.022;2023-08-30T01:09:10;13.18;;;11.25;;
27003;SDS011;14546;47.590;19.022;2023-08-30T01:14:49;18.02;;;11.85;;
27003;SDS011;14546;47.590;19.022;2023-08-30T01:17:22;15.02;;;12.10;;
27003;SDS011;14546;47.590;19.022;2023-08-30T01:19:53;14.75;;;12.75;;
27003;SDS011;14546;47.590;19.022;2023-08-30T01:25:27;17.00;;;12.73;;
27003;SDS011;14546;47.590;19.022;2023-08-30T01:28:01;17.88;;;13.38;;
27003;SDS011;14546;47.590;19.022;2023-08-30T01:30:30;15.68;;;11.88;;
27003;SDS011;14546;47.590;19.022;2023-08-30T01:32:59;14.35;;;12.05;;
27003;SDS011;14546;47.590;19.022;2023-08-30T01:35:26;17.00;;;12.80;;
27003;SDS011;14546;47.590;19.022;2023-08-30T01:37:57;13.20;;;11.45;;
27003;SDS011;14546;47.590;19.022;2023-08-30T01:40:25;20.13;;;11.75;;
27003;SDS011;14546;47.590;19.022;2023-08-30T01:42:52;15.63;;;11.23;;
27003;SDS011;14546;47.590;19.022;2023-08-30T01:45:19;17.80;;;11.90;;
27003;SDS011;14546;47.590;19.022;2023-08-30T01:47:45;15.70;;;11.88;;
27003;SDS011;14546;47.590;19.022;2023-08-30T01:50:12;17.23;;;11.75;;
27003;SDS011;14546;47.590;19.022;2023-08-30T01:52:38;14.82;;;12.15;;
27003;SDS011;14546;47.590;19.022;2023-08-30T01:55:04;15.88;;;11.32;;
27003;SDS011;14546;47.590;19.022;2023-08-30T01:57:32;14.95;;;11.60;;
27003;SDS011;14546;47.590;19.022;2023-08-30T01:59:58;15.30;;;11.27;;
27003;SDS011;14546;47.590;19.022;2023-08-30T02:02:24;17.15;;;11.52;;
27003;SDS011;14546;47.590;19.022;2023-08-30T02:04:53;18.45;;;11.20;;
27003;SDS011;14546;47.590;19.022;2023-08-30T02:07:35;14.38;;;10.98;;
27003;SDS011;14546;47.590;19.022;2023-08-30T02:10:06;17.58;;;11.85;;
27003;SDS011;14546;47.590;19.022;2023-08-30T02:12:53;13.73;;;11.30;;
27003;SDS011;14546;47.590;19.022;2023-08-30T02:15:19;14.88;;;11.95;;
27003;SDS011;14546;47.590;19.022;2023-08-30T02:17:46;12.95;;;10.35;;
27003;SDS011;14546;47.590;19.022;2023-08-30T02:20:14;15.05;;;11.68;;
27003;SDS011;14546;47.590;19.022;2023-08-30T02:22:40;15.02;;;11.38;;
27003;SDS011;14546;47.590;19.022;2023-08-30T02:25:06;22.42;;;12.98;;
27003;SDS011;14546;47.590;19.022;2023-08-30T02:27:33;19.50;;;12.00;;
27003;SDS011;14546;47.590;19.022;2023-08-30T02:30:02;19.05;;;11.32;;
27003;SDS011;14546;47.590;19.022;2023-08-30T02:32:28;18.73;;;11.38;;
27003;SDS011;14546;47.590;19.022;2023-08-30T02:34:55;19.75;;;12.25;;
27003;SDS011;14546;47.590;19.022;2023-08-30T02:37:21;15.18;;;12.18;;
27003;SDS011;14546;47.590;19.022;2023-08-30T02:39:47;17.33;;;12.30;;
27003;SDS011;14546;47.590;19.022;2023-08-30T02:42:13;14.38;;;11.20;;
27003;SDS011;14546;47.590;19.022;2023-08-30T02:44:38;18.95;;;12.95;;
27003;SDS011;14546;47.590;19.022;2023-08-30T02:47:04;16.00;;;11.57;;
27003;SDS011;14546;47.590;19.022;2023-08-30T02:49:30;12.50;;;10.43;;
27003;SDS011;14546;47.590;19.022;2023-08-30T02:51:55;14.35;;;11.00;;
27003;SDS011;14546;47.590;19.022;2023-08-30T02:54:21;18.27;;;11.73;;
27003;SDS011;14546;47.590;19.022;2023-08-30T02:56:47;16.77;;;10.40;;
27003;SDS011;14546;47.590;19.022;2023-08-30T02:59:13;15.20;;;10.65;;
27003;SDS011;14546;47.590;19.022;2023-08-30T03:01:39;13.65;;;10.35;;
27003;SDS011;14546;47.590;19.022;2023-08-30T03:04:05;13.75;;;9.45;;
27003;SDS011;14546;47.590;19.022;2023-08-30T03:06:34;12.60;;;9.60;;
27003;SDS011;14546;47.590;19.022;2023-08-30T03:09:00;11.57;;;9.93;;
27003;SDS011;14546;47.590;19.022;2023-08-30T03:11:28;13.45;;;9.68;;
27003;SDS011;14546;47.590;19.022;2023-08-30T03:13:54;14.00;;;9.57;;
27003;SDS011;14546;47.590;19.022;2023-08-30T03:16:20;12.57;;;9.27;;
27003;SDS011;14546;47.590;19.022;2023-08-30T03:18:46;12.65;;;9.10;;
27003;SDS011;14546;47.590;19.022;2023-08-30T03:21:12;15.55;;;9.68;;
27003;SDS011;14546;47.590;19.022;2023-08-30T03:23:38;14.00;;;10.07;;
27003;SDS011;14546;47.590;19.022;2023-08-30T03:26:11;17.02;;;11.10;;
27003;SDS011;14546;47.590;19.022;2023-08-30T03:28:38;19.98;;;10.98;;
27003;SDS011;14546;47.590;19.022;2023-08-30T03:31:14;16.10;;;11.40;;
27003;SDS011;14546;47.590;19.022;2023-08-30T03:33:41;14.50;;;9.63;;
27003;SDS011;14546;47.590;19.022;2023-08-30T03:36:07;15.43;;;11.25;;
27003;SDS011;14546;47.590;19.022;2023-08-30T03:38:35;15.13;;;11.57;;
27003;SDS011;14546;47.590;19.022;2023-08-30T03:41:00;16.38;;;11.88;;
27003;SDS011;14546;47.590;19.022;2023-08-30T03:43:27;15.82;;;10.60;;
27003;SDS011;14546;47.590;19.022;2023-08-30T03:45:52;16.48;;;11.15;;
27003;SDS011;14546;47.590;19.022;2023-08-30T03:48:18;19.85;;;12.15;;
27003;SDS011;14546;47.590;19.022;2023-08-30T03:50:44;20.70;;;12.75;;
27003;SDS011;14546;47.590;19.022;2023-08-30T03:53:09;18.67;;;11.65;;
27003;SDS011;14546;47.590;19.022;2023-08-30T03:55:36;23.90;;;13.02;;
27003;SDS011;14546;47.590;19.022;2023-08-30T03:58:01;23.67;;;12.70;;
27003;SDS011;14546;47.590;19.022;2023-08-30T04:00:28;20.92;;;13.35;;
27003;SDS011;14546;47.590;19.022;2023-08-30T04:02:54;22.90;;;13.38;;
27003;SDS011;14546;47.590;19.022;2023-08-30T04:05:20;22.17;;;12.95;;
27003;SDS011;14546;47.590;19.022;2023-08-30T04:07:46;26.08;;;13.73;;
27003;SDS011;14546;47.590;19.022;2023-08-30T04:10:11;25.25;;;13.90;;
27003;SDS011;14546;47.590;19.022;2023-08-30T04:12:37;24.50;;;13.93;;
27003;SDS011;14546;47.590;19.022;2023-08-30T04:15:03;22.63;;;14.95;;
27003;SDS011;14546;47.590;19.022;2023-08-30T04:17:28;22.92;;;14.00;;
27003;SDS011;14546;47.590;19.022;2023-08-30T04:19:54;21.45;;;14.38;;
27003;SDS011;14546;47.590;19.022;2023-08-30T04:22:20;24.67;;;14.05;;
27003;SDS011;14546;47.590;19.022;2023-08-30T04:24:46;25.33;;;14.55;;
27003;SDS011;14546;47.590;19.022;2023-08-30T04:27:12;24.40;;;14.45;;
27003;SDS011;14546;47.590;19.022;2023-08-30T04:29:37;24.00;;;14.10;;
27003;SDS011;14546;47.590;19.022;2023-08-30T04:32:03;22.75;;;13.35;;
27003;SDS011;14546;47.590;19.022;2023-08-30T04:34:29;22.77;;;14.43;;
27003;SDS011;14546;47.590;19.022;2023-08-30T04:36:56;26.48;;;14.45;;
27003;SDS011;14546;47.590;19.022;2023-08-30T04:39:21;24.70;;;15.52;;
27003;SDS011;14546;47.590;19.022;2023-08-30T04:41:47;25.65;;;13.70;;
27003;SDS011;14546;47.590;19.022;2023-08-30T04:44:13;21.83;;;14.48;;
27003;SDS011;14546;47.590;19.022;2023-08-30T04:46:38;27.58;;;13.90;;
27003;SDS011;14546;47.590;19.022;2023-08-30T04:49:04;21.88;;;14.00;;
27003;SDS011;14546;47.590;19.022;2023-08-30T04:51:30;19.48;;;13.52;;
27003;SDS011;14546;47.590;19.022;2023-08-30T04:53:55;21.95;;;14.18;;
27003;SDS011;14546;47.590;19.022;2023-08-30T04:56:23;22.30;;;13.52;;
27003;SDS011;14546;47.590;19.022;2023-08-30T04:58:48;20.52;;;12.93;;
27003;SDS011;14546;47.590;19.022;2023-08-30T05:01:15;23.10;;;13.13;;
27003;SDS011;14546;47.590;19.022;2023-08-30T05:03:41;19.23;;;12.70;;
27003;SDS011;14546;47.590;19.022;2023-08-30T05:06:08;15.98;;;11.98;;
27003;SDS011;14546;47.590;19.022;2023-08-30T05:08:34;16.52;;;13.18;;
27003;SDS011;14546;47.590;19.022;2023-08-30T05:11:00;23.65;;;15.13;;
27003;SDS011;14546;47.590;19.022;2023-08-30T05:13:28;21.15;;;14.70;;
27003;SDS011;14546;47.590;19.022;2023-08-30T05:15:54;23.05;;;14.45;;
27003;SDS011;14546;47.590;19.022;2023-08-30T05:18:20;19.45;;;13.23;;
27003;SDS011;14546;47.590;19.022;2023-08-30T05:20:46;29.05;;;15.73;;
27003;SDS011;14546;47.590;19.022;2023-08-30T05:23:12;20.13;;;13.35;;
27003;SDS011;14546;47.590;19.022;2023-08-30T05:25:38;17.85;;;12.73;;
27003;SDS011;14546;47.590;19.022;2023-08-30T05:28:04;22.17;;;14.18;;
27003;SDS011;14546;47.590;19.022;2023-08-30T05:30:30;21.88;;;12.88;;
27003;SDS011;14546;47.590;19.022;2023-08-30T05:32:56;19.17;;;13.50;;
27003;SDS011;14546;47.590;19.022;2023-08-30T05:35:22;18.58;;;12.80;;
27003;SDS011;14546;47.590;19.022;2023-08-30T05:37:48;17.27;;;12.23;;
27003;SDS011;14546;47.590;19.022;2023-08-30T05:40:15;20.20;;;12.77;;
27003;SDS011;14546;47.590;19.022;2023-08-30T05:42:42;18.45;;;12.50;;
27003;SDS011;14546;47.590;19.022;2023-08-30T05:45:10;18.20;;;12.40;;
27003;SDS011;14546;47.590;19.022;2023-08-30T05:47:36;18.27;;;12.25;;
27003;SDS011;14546;47.590;19.022;2023-08-30T05:50:02;17.77;;;13.27;;
27003;SDS011;14546;47.590;19.022;2023-08-30T05:52:28;21.80;;;13.75;;
27003;SDS011;14546;47.590;19.022;2023-08-30T05:54:54;20.13;;;12.23;;
27003;SDS011;14546;47.590;19.022;2023-08-30T05:57:20;16.45;;;11.10;;
27003;SDS011;14546;47.590;19.022;2023-08-30T05:59:48;16.38;;;11.63;;
27003;SDS011;14546;47.590;19.022;2023-08-30T06:02:14;14.38;;;11.38;;
27003;SDS011;14546;47.590;19.022;2023-08-30T06:04:40;20.83;;;11.95;;
27003;SDS011;14546;47.590;19.022;2023-08-30T06:07:06;17.25;;;12.10;;
27003;SDS011;14546;47.590;19.022;2023-08-30T06:09:33;14.32;;;11.25;;
27003;SDS011;14546;47.590;19.022;2023-08-30T06:11:59;15.07;;;12.07;;
27003;SDS011;14546;47.590;19.022;2023-08-30T06:14:25;13.75;;;11.13;;
27003;SDS011;14546;47.590;19.022;2023-08-30T06:16:51;19.13;;;12.60;;
27003;SDS011;14546;47.590;19.022;2023-08-30T06:19:17;14.90;;;11.98;;
27003;SDS011;14546;47.590;19.022;2023-08-30T06:21:43;17.10;;;11.18;;
27003;SDS011;14546;47.590;19.022;2023-08-30T06:24:09;14.57;;;11.82;;
27003;SDS011;14546;47.590;19.022;2023-08-30T06:26:35;17.77;;;12.38;;
27003;SDS011;14546;47.590;19.022;2023-08-30T06:29:01;15.52;;;11.43;;
27003;SDS011;14546;47.590;19.022;2023-08-30T06:31:27;15.90;;;11.10;;
27003;SDS011;14546;47.590;19.022;2023-08-30T06:33:54;14.45;;;11.57;;
27003;SDS011;14546;47.590;19.022;2023-08-30T06:36:20;15.43;;;11.05;;
27003;SDS011;14546;47.590;19.022;2023-08-30T06:38:48;14.68;;;10.77;;
27003;SDS011;14546;47.590;19.022;2023-08-30T06:41:14;21.55;;;11.93;;
27003;SDS011;14546;47.590;19.022;2023-08-30T06:43:40;14.75;;;11.18;;
27003;SDS011;14546;47.590;19.022;2023-08-30T06:46:06;16.60;;;12.05;;
27003;SDS011;14546;47.590;19.022;2023-08-30T06:48:32;13.23;;;10.80;;
27003;SDS011;14546;47.590;19.022;2023-08-30T06:50:58;17.95;;;11.30;;
27003;SDS011;14546;47.590;19.022;2023-08-30T06:53:28;17.63;;;11.13;;
27003;SDS011;14546;47.590;19.022;2023-08-30T06:56:00;12.55;;;10.25;;
27003;SDS011;14546;47.590;19.022;2023-08-30T06:58:26;17.05;;;10.98;;
27003;SDS011;14546;47.590;19.022;2023-08-30T07:00:52;14.48;;;10.15;;
27003;SDS011;14546;47.590;19.022;2023-08-30T07:03:18;14.80;;;11.75;;
27003;SDS011;14546;47.590;19.022;2023-08-30T07:05:44;13.82;;;10.90;;
27003;SDS011;14546;47.590;19.022;2023-08-30T07:08:12;14.35;;;11.15;;
27003;SDS011;14546;47.590;19.022;2023-08-30T07:10:39;16.80;;;12.05;;
27003;SDS011;14546;47.590;19.022;2023-08-30T07:13:05;16.85;;;11.32;;
27003;SDS011;14546;47.590;19.022;2023-08-30T07:15:35;17.60;;;11.13;;
27003;SDS011;14546;47.590;19.022;2023-08-30T07:18:01;15.05;;;11.45;;
27003;SDS011;14546;47.590;19.022;2023-08-30T07:20:28;16.92;;;13.05;;
27003;SDS011;14546;47.590;19.022;2023-08-30T07:22:54;16.05;;;11.98;;
27003;SDS011;14546;47.590;19.022;2023-08-30T07:25:20;17.52;;;12.50;;
27003;SDS011;14546;47.590;19.022;2023-08-30T07:27:45;18.20;;;12.52;;
27003;SDS011;14546;47.590;19.022;2023-08-30T07:30:11;18.77;;;11.40;;
27003;SDS011;14546;47.590;19.022;2023-08-30T07:32:37;22.52;;;11.65;;
27003;SDS011;14546;47.590;19.022;2023-08-30T07:35:03;22.55;;;12.88;;
27003;SDS011;14546;47.590;19.022;2023-08-30T07:37:29;18.63;;;12.02;;
27003;SDS011;14546;47.590;19.022;2023-08-30T07:39:55;19.42;;;13.05;;
27003;SDS011;14546;47.590;19.022;2023-08-30T07:42:20;15.18;;;12.57;;
27003;SDS011;14546;47.590;19.022;2023-08-30T07:44:46;16.15;;;12.43;;
27003;SDS011;14546;47.590;19.022;2023-08-30T07:47:12;19.88;;;12.27;;
27003;SDS011;14546;47.590;19.022;2023-08-30T07:49:38;16.65;;;11.40;;
27003;SDS011;14546;47.590;19.022;2023-08-30T07:52:03;17.95;;;12.57;;
27003;SDS011;14546;47.590;19.022;2023-08-30T07:54:31;17.52;;;11.30;;
27003;SDS011;14546;47.590;19.022;2023-08-30T07:56:57;17.25;;;11.93;;
27003;SDS011;14546;47.590;19.022;2023-08-30T07:59:23;21.42;;;13.05;;
27003;SDS011;14546;47.590;19.022;2023-08-30T08:01:48;16.33;;;11.55;;
27003;SDS011;14546;47.590;19.022;2023-08-30T08:04:16;25.63;;;12.50;;
27003;SDS011;14546;47.590;19.022;2023-08-30T08:06:42;17.30;;;11.38;;
27003;SDS011;14546;47.590;19.022;2023-08-30T08:09:07;16.35;;;11.35;;
27003;SDS011;14546;47.590;19.022;2023-08-30T08:11:33;16.23;;;11.13;;
27003;SDS011;14546;47.590;19.022;2023-08-30T08:13:59;18.70;;;10.68;;
27003;SDS011;14546;47.590;19.022;2023-08-30T08:16:24;18.40;;;11.70;;
27003;SDS011;14546;47.590;19.022;2023-08-30T08:18:50;25.33;;;12.23;;
27003;SDS011;14546;47.590;19.022;2023-08-30T08:21:17;14.55;;;10.93;;
27003;SDS011;14546;47.590;19.022;2023-08-30T08:23:43;18.45;;;10.98;;
27003;SDS011;14546;47.590;19.022;2023-08-30T08:26:09;20.27;;;10.68;;
27003;SDS011;14546;47.590;19.022;2023-08-30T08:28:34;15.70;;;10.68;;
27003;SDS011;14546;47.590;19.022;2023-08-30T08:31:00;14.05;;;10.63;;
27003;SDS011;14546;47.590;19.022;2023-08-30T08:33:26;15.13;;;10.32;;
27003;SDS011;14546;47.590;19.022;2023-08-30T08:35:51;13.85;;;10.43;;
27003;SDS011;14546;47.590;19.022;2023-08-30T08:38:17;20.05;;;11.52;;
27003;SDS011;14546;47.590;19.022;2023-08-30T08:40:43;19.30;;;11.65;;
27003;SDS011;14546;47.590;19.022;2023-08-30T08:43:11;20.25;;;11.98;;
27003;SDS011;14546;47.590;19.022;2023-08-30T08:45:37;18.20;;;10.90;;
27003;SDS011;14546;47.590;19.022;2023-08-30T08:48:03;19.15;;;11.20;;
27003;SDS011;14546;47.590;19.022;2023-08-30T08:50:29;17.35;;;10.52;;
27003;SDS011;14546;47.590;19.022;2023-08-30T08:52:55;19.10;;;11.35;;
27003;SDS011;14546;47.590;19.022;2023-08-30T08:55:22;14.55;;;10.02;;
27003;SDS011;14546;47.590;19.022;2023-08-30T08:57:48;22.17;;;11.82;;
27003;SDS011;14546;47.590;19.022;2023-08-30T09:00:14;15.60;;;10.07;;
27003;SDS011;14546;47.590;19.022;2023-08-30T09:02:41;15.32;;;10.80;;
27003;SDS011;14546;47.590;19.022;2023-08-30T09:05:07;19.38;;;10.75;;
27003;SDS011;14546;47.590;19.022;2023-08-30T09:07:33;19.05;;;11.73;;
27003;SDS011;14546;47.590;19.022;2023-08-30T09:10:01;16.92;;;10.85;;
27003;SDS011;14546;47.590;19.022;2023-08-30T09:12:26;15.75;;;10.20;;
27003;SDS011;14546;47.590;19.022;2023-08-30T09:14:53;17.50;;;9.95;;
27003;SDS011;14546;47.590;19.022;2023-08-30T09:17:21;16.15;;;10.32;;
27003;SDS011;14546;47.590;19.022;2023-08-30T09:19:47;14.82;;;9.00;;
27003;SDS011;14546;47.590;19.022;2023-08-30T09:22:13;14.95;;;9.45;;
27003;SDS011;14546;47.590;19.022;2023-08-30T09:24:39;12.60;;;8.57;;
27003;SDS011;14546;47.590;19.022;2023-08-30T09:27:06;14.23;;;8.30;;
27003;SDS011;14546;47.590;19.022;2023-08-30T09:29:31;12.38;;;7.85;;
27003;SDS011;14546;47.590;19.022;2023-08-30T09:31:57;11.32;;;8.43;;
27003;SDS011;14546;47.590;19.022;2023-08-30T09:34:23;14.98;;;8.00;;
27003;SDS011;14546;47.590;19.022;2023-08-30T09:36:53;11.25;;;7.88;;
27003;SDS011;14546;47.590;19.022;2023-08-30T09:39:19;11.13;;;7.95;;
27003;SDS011;14546;47.590;19.022;2023-08-30T09:41:46;15.52;;;9.20;;
27003;SDS011;14546;47.590;19.022;2023-08-30T09:44:13;17.13;;;8.93;;
27003;SDS011;14546;47.590;19.022;2023-08-30T09:46:50;16.92;;;9.95;;
27003;SDS011;14546;47.590;19.022;2023-08-30T09:49:20;15.32;;;9.15;;
27003;SDS011;14546;47.590;19.022;2023-08-30T09:51:47;17.17;;;9.27;;
27003;SDS011;14546;47.590;19.022;2023-08-30T09:54:18;13.75;;;8.85;;
27003;SDS011;14546;47.590;19.022;2023-08-30T09:56:48;16.27;;;9.10;;
27003;SDS011;14546;47.590;19.022;2023-08-30T09:59:17;13.70;;;9.18;;
27003;SDS011;14546;47.590;19.022;2023-08-30T10:01:44;13.18;;;8.85;;
27003;SDS011;14546;47.590;19.022;2023-08-30T10:04:11;12.07;;;8.45;;
27003;SDS011;14546;47.590;19.022;2023-08-30T10:06:38;13.55;;;8.55;;
27003;SDS011;14546;47.590;19.022;2023-08-30T10:09:04;13.75;;;8.30;;
27003;SDS011;14546;47.590;19.022;2023-08-30T10:11:32;16.85;;;9.80;;
27003;SDS011;14546;47.590;19.022;2023-08-30T10:14:00;18.70;;;9.27;;
27003;SDS011;14546;47.590;19.022;2023-08-30T10:16:26;15.15;;;9.02;;
27003;SDS011;14546;47.590;19.022;2023-08-30T10:18:54;14.32;;;9.10;;
27003;SDS011;14546;47.590;19.022;2023-08-30T10:23:53;10.40;;;7.72;;
27003;SDS011;14546;47.590;19.022;2023-08-30T10:26:21;13.38;;;8.25;;
27003;SDS011;14546;47.590;19.022;2023-08-30T10:28:48;13.25;;;8.02;;
27003;SDS011;14546;47.590;19.022;2023-08-30T10:31:15;9.57;;;7.40;;
27003;SDS011;14546;47.590;19.022;2023-08-30T10:33:52;13.13;;;7.95;;
27003;SDS011;14546;47.590;19.022;2023-08-30T10:36:25;10.73;;;7.15;;
27003;SDS011;14546;47.590;19.022;2023-08-30T10:38:52;10.27;;;7.38;;
27003;SDS011;14546;47.590;19.022;2023-08-30T10:41:22;13.43;;;7.63;;
27003;SDS011;14546;47.590;19.022;2023-08-30T10:43:49;17.90;;;9.27;;
27003;SDS011;14546;47.590;19.022;2023-08-30T10:46:16;11.07;;;7.70;;
27003;SDS011;14546;47.590;19.022;2023-08-30T10:48:42;12.70;;;7.30;;
27003;SDS011;14546;47.590;19.022;2023-08-30T10:51:21;11.52;;;6.63;;
27003;SDS011;14546;47.590;19.022;2023-08-30T10:53:57;10.60;;;6.63;;
27003;SDS011;14546;47.590;19.022;2023-08-30T10:56:28;7.93;;;5.35;;
27003;SDS011;14546;47.590;19.022;2023-08-30T10:58:55;8.48;;;5.28;;
27003;SDS011;14546;47.590;19.022;2023-08-30T11:01:22;7.57;;;5.30;;
27003;SDS011;14546;47.590;19.022;2023-08-30T11:03:49;10.77;;;5.07;;
27003;SDS011;14546;47.590;19.022;2023-08-30T11:06:16;7.32;;;5.03;;
27003;SDS011;14546;47.590;19.022;2023-08-30T11:08:43;8.45;;;5.47;;
27003;SDS011;14546;47.590;19.022;2023-08-30T11:11:10;9.00;;;4.60;;
27003;SDS011;14546;47.590;19.022;2023-08-30T11:13:38;7.90;;;4.60;;
27003;SDS011;14546;47.590;19.022;2023-08-30T11:16:04;9.15;;;4.30;;
27003;SDS011;14546;47.590;19.022;2023-08-30T11:18:30;7.05;;;4.40;;
27003;SDS011;14546;47.590;19.022;2023-08-30T11:21:00;15.55;;;4.85;;
27003;SDS011;14546;47.590;19.022;2023-08-30T11:23:27;10.35;;;4.38;;
27003;SDS011;14546;47.590;19.022;2023-08-30T11:25:53;10.88;;;4.07;;
27003;SDS011;14546;47.590;19.022;2023-08-30T11:28:24;9.75;;;4.13;;
27003;SDS011;14546;47.590;19.022;2023-08-30T11:30:54;6.70;;;4.82;;
27003;SDS011;14546;47.590;19.022;2023-08-30T11:33:21;6.00;;;3.92;;
27003;SDS011;14546;47.590;19.022;2023-08-30T11:35:49;10.68;;;3.70;;
27003;SDS011;14546;47.590;19.022;2023-08-30T11:38:15;10.35;;;4.20;;
27003;SDS011;14546;47.590;19.022;2023-08-30T11:40:41;9.98;;;5.28;;
27003;SDS011;14546;47.590;19.022;2023-08-30T11:43:07;11.02;;;4.47;;
27003;SDS011;14546;47.590;19.022;2023-08-30T11:45:34;7.07;;;4.72;;
27003;SDS011;14546;47.590;19.022;2023-08-30T11:48:00;10.88;;;5.38;;
27003;SDS011;14546;47.590;19.022;2023-08-30T11:50:26;7.22;;;4.55;;
27003;SDS011;14546;47.590;19.022;2023-08-30T11:52:52;7.22;;;4.65;;
27003;SDS011;14546;47.590;19.022;2023-08-30T11:55:20;10.98;;;5.28;;
27003;SDS011;14546;47.590;19.022;2023-08-30T11:57:49;5.70;;;5.00;;
27003;SDS011;14546;47.590;19.022;2023-08-30T12:00:17;6.82;;;4.72;;
27003;SDS011;14546;47.590;19.022;2023-08-30T12:02:44;8.50;;;4.30;;
27003;SDS011;14546;47.590;19.022;2023-08-30T12:05:14;6.38;;;5.03;;
27003;SDS011;14546;47.590;19.022;2023-08-30T12:07:41;9.20;;;4.72;;
27003;SDS011;14546;47.590;19.022;2023-08-30T12:10:07;9.35;;;5.47;;
27003;SDS011;14546;47.590;19.022;2023-08-30T12:12:34;6.68;;;4.93;;
27003;SDS011;14546;47.590;19.022;2023-08-30T12:15:09;7.70;;;4.78;;
27003;SDS011;14546;47.590;19.022;2023-08-30T12:17:35;6.38;;;4.15;;
27003;SDS011;14546;47.590;19.022;2023-08-30T12:20:02;6.22;;;4.00;;
27003;SDS011;14546;47.590;19.022;2023-08-30T12:22:38;8.07;;;4.50;;
27003;SDS011;14546;47.590;19.022;2023-08-30T12:25:04;6.07;;;4.45;;
27003;SDS011;14546;47.590;19.022;2023-08-30T12:27:30;5.00;;;3.85;;
27003;SDS011;14546;47.590;19.022;2023-08-30T12:29:56;5.40;;;3.80;;
27003;SDS011;14546;47.590;19.022;2023-08-30T12:32:22;5.95;;;4.00;;
27003;SDS011;14546;47.590;19.022;2023-08-30T12:34:48;6.28;;;3.60;;
27003;SDS011;14546;47.590;19.022;2023-08-30T12:37:14;3.83;;;3.20;;
27003;SDS011;14546;47.590;19.022;2023-08-30T12:39:40;5.32;;;3.38;;
27003;SDS011;14546;47.590;19.022;2023-08-30T12:42:07;8.93;;;3.40;;
27003;SDS011;14546;47.590;19.022;2023-08-30T12:44:33;5.47;;;3.50;;
27003;SDS011;14546;47.590;19.022;2023-08-30T12:47:00;5.63;;;3.20;;
27003;SDS011;14546;47.590;19.022;2023-08-30T12:49:26;5.90;;;3.33;;
27003;SDS011;14546;47.590;19.022;2023-08-30T12:51:52;4.47;;;3.30;;
27003;SDS011;14546;47.590;19.022;2023-08-30T12:54:18;5.68;;;3.33;;
27003;SDS011;14546;47.590;19.022;2023-08-30T12:56:44;4.50;;;3.40;;
27003;SDS011;14546;47.590;19.022;2023-08-30T12:59:10;4.22;;;3.30;;
27003;SDS011;14546;47.590;19.022;2023-08-30T13:01:36;5.15;;;3.50;;
27003;SDS011;14546;47.590;19.022;2023-08-30T13:04:02;4.80;;;3.20;;
27003;SDS011;14546;47.590;19.022;2023-08-30T13:06:28;5.53;;;3.42;;
27003;SDS011;14546;47.590;19.022;2023-08-30T13:08:54;3.30;;;2.60;;
27003;SDS011;14546;47.590;19.022;2023-08-30T13:11:20;8.07;;;3.05;;
27003;SDS011;14546;47.590;19.022;2023-08-30T13:13:46;6.00;;;2.83;;
27003;SDS011;14546;47.590;19.022;2023-08-30T13:16:12;6.57;;;3.20;;
27003;SDS011;14546;47.590;19.022;2023-08-30T13:18:38;7.35;;;2.80;;
27003;SDS011;14546;47.590;19.022;2023-08-30T13:21:04;5.75;;;3.35;;
27003;SDS011;14546;47.590;19.022;2023-08-30T13:23:30;3.42;;;3.10;;
27003;SDS011;14546;47.590;19.022;2023-08-30T13:25:57;4.03;;;2.35;;
27003;SDS011;14546;47.590;19.022;2023-08-30T13:28:23;5.43;;;2.75;;
27003;SDS011;14546;47.590;19.022;2023-08-30T13:30:49;6.90;;;3.17;;
27003;SDS011;14546;47.590;19.022;2023-08-30T13:33:16;5.15;;;2.38;;
27003;SDS011;14546;47.590;19.022;2023-08-30T13:35:43;3.42;;;2.78;;
27003;SDS011;14546;47.590;19.022;2023-08-30T13:38:15;2.72;;;2.30;;
27003;SDS011;14546;47.590;19.022;2023-08-30T13:40:41;4.32;;;3.05;;
27003;SDS011;14546;47.590;19.022;2023-08-30T13:43:07;3.13;;;2.70;;
27003;SDS011;14546;47.590;19.022;2023-08-30T13:45:33;3.50;;;3.03;;
27003;SDS011;14546;47.590;19.022;2023-08-30T13:47:59;7.63;;;3.08;;
27003;SDS011;14546;47.590;19.022;2023-08-30T13:50:26;3.20;;;2.90;;
27003;SDS011;14546;47.590;19.022;2023-08-30T13:52:58;4.47;;;3.08;;
27003;SDS011;14546;47.590;19.022;2023-08-30T13:55:24;11.10;;;2.90;;
27003;SDS011;14546;47.590;19.022;2023-08-30T13:57:51;3.75;;;2.63;;
27003;SDS011;14546;47.590;19.022;2023-08-30T14:00:18;5.57;;;2.60;;
27003;SDS011;14546;47.590;19.022;2023-08-30T14:02:44;3.60;;;2.45;;
27003;SDS011;14546;47.590;19.022;2023-08-30T14:05:11;3.10;;;2.63;;
27003;SDS011;14546;47.590;19.022;2023-08-30T14:07:37;4.53;;;2.85;;
27003;SDS011;14546;47.590;19.022;2023-08-30T14:10:03;2.97;;;2.45;;
27003;SDS011;14546;47.590;19.022;2023-08-30T14:12:29;4.20;;;2.40;;
27003;SDS011;14546;47.590;19.022;2023-08-30T14:14:55;3.72;;;2.78;;
27003;SDS011;14546;47.590;19.022;2023-08-30T14:17:21;3.28;;;2.38;;
27003;SDS011;14546;47.590;19.022;2023-08-30T14:19:47;3.72;;;2.65;;
27003;SDS011;14546;47.590;19.022;2023-08-30T14:22:13;3.08;;;2.53;;
27003;SDS011;14546;47.590;19.022;2023-08-30T14:24:39;5.88;;;2.55;;